createdAt,value
2023-01-05T00:01:12.887Z,99508.25
2023-01-05T00:03:50.495Z,99497.55
2023-01-05T00:06:20.721Z,99495.81
2023-01-05T00:08:53.746Z,99483.64
2023-01-05T00:11:54.114Z,99478.96
2023-01-05T00:14:52.892Z,99474.23
2023-01-05T00:17:43.468Z,99468.24
2023-01-05T00:20:43.823Z,99467.04
2023-01-05T00:23:16.460Z,99471.90
2023-01-05T00:25:47.134Z,99469.05
2023-01-05T00:28:18.969Z,99473.17
2023-01-05T00:30:49.988Z,99471.98
2023-01-05T00:33:25.257Z,99468.61
2023-01-05T00:36:00.543Z,99469.90
2023-01-05T00:38:30.580Z,99467.16
2023-01-05T00:41:00.483Z,99468.27
2023-01-05T00:43:32.847Z,99464.01
2023-01-05T00:46:03.089Z,99464.05
2023-01-05T00:48:38.535Z,99463.90
2023-01-05T00:51:13.117Z,99459.80
2023-01-05T00:53:48.232Z,99458.80
2023-01-05T00:56:25.419Z,99457.29
2023-01-05T00:58:57.980Z,99458.36
2023-01-05T01:01:28.489Z,99451.61
2023-01-05T01:04:01.249Z,99450.02
2023-01-05T01:06:31.950Z,99445.73
2023-01-05T01:09:05.478Z,99439.32
2023-01-05T01:11:37.844Z,99446.81
2023-01-05T01:14:11.106Z,99440.02
2023-01-05T01:16:43.700Z,99433.16
2023-01-05T01:19:24.495Z,99431.07
2023-01-05T01:21:55.200Z,99432.67
2023-01-05T01:24:30.083Z,99431.57
2023-01-05T01:27:00.378Z,99423.21
2023-01-05T01:29:33.530Z,99423.84
2023-01-05T01:32:11.169Z,99418.44
2023-01-05T01:34:55.455Z,99413.38
2023-01-05T01:37:26.159Z,99411.63
2023-01-05T01:40:02.818Z,99401.77
2023-01-05T01:42:35.997Z,99397.66
2023-01-05T01:45:24.444Z,99405.52
2023-01-05T01:48:02.722Z,99400.73
2023-01-05T01:51:08.057Z,99404.55
2023-01-05T01:53:56.432Z,99414.17
2023-01-05T01:56:41.447Z,99411.61
2023-01-05T01:59:17.828Z,99403.16
2023-01-05T02:01:58.599Z,99397.67
2023-01-05T02:04:38.143Z,99399.23
2023-01-05T02:07:15.992Z,99397.55
2023-01-05T02:09:49.935Z,99397.20
2023-01-05T02:12:54.101Z,99400.17
2023-01-05T02:16:22.176Z,99408.37
2023-01-05T02:19:08.901Z,99408.31
2023-01-05T02:21:51.822Z,99408.83
2023-01-05T02:25:03.737Z,99399.95
2023-01-05T02:28:18.128Z,99386.54
2023-01-05T02:31:23.281Z,99380.55
2023-01-05T02:34:19.658Z,99369.48
2023-01-05T02:37:04.051Z,99359.86
2023-01-05T02:40:21.860Z,99356.94
2023-01-05T02:42:55.974Z,99363.33
2023-01-05T02:45:28.092Z,99354.85
2023-01-05T02:48:05.770Z,99361.55
2023-01-05T02:50:54.078Z,99368.44
2023-01-05T02:53:43.062Z,99374.01
2023-01-05T02:56:37.152Z,99373.70
2023-01-05T02:59:33.030Z,99374.86
2023-01-05T03:02:22.816Z,99381.16
2023-01-05T03:05:13.709Z,99382.14
2023-01-05T03:07:44.235Z,99384.61
2023-01-05T03:10:34.210Z,99388.41
2023-01-05T03:13:31.183Z,99392.49
2023-01-05T03:16:09.195Z,99400.50
2023-01-05T03:19:03.030Z,99408.94
2023-01-05T03:21:52.710Z,99400.05
2023-01-05T03:24:41.805Z,99402.09
2023-01-05T03:27:35.596Z,99399.69
2023-01-05T03:30:27.004Z,99400.41
2023-01-05T03:33:28.898Z,99401.54
2023-01-05T03:36:02.032Z,99399.25
2023-01-05T03:38:46.545Z,99397.13
2023-01-05T03:41:31.001Z,99394.51
2023-01-05T03:44:13.227Z,99392.96
2023-01-05T03:46:45.924Z,99385.64
2023-01-05T03:49:20.784Z,99386.18
2023-01-05T03:51:57.118Z,99380.64
2023-01-05T03:54:36.127Z,99381.82
2023-01-05T03:57:49.797Z,99393.73
2023-01-05T04:00:31.908Z,99399.90
2023-01-05T04:03:15.081Z,99401.16
2023-01-05T04:05:50.876Z,99396.67
2023-01-05T04:08:21.712Z,99401.08
2023-01-05T04:11:21.558Z,99389.31
2023-01-05T04:14:04.416Z,99392.73
2023-01-05T04:16:57.900Z,99394.96
2023-01-05T04:19:39.319Z,99393.14
2023-01-05T04:22:27.601Z,99388.98
2023-01-05T04:25:12.072Z,99392.34
2023-01-05T04:28:01.548Z,99396.38
2023-01-05T04:30:51.083Z,99396.69
2023-01-05T04:34:01.331Z,99395.26
2023-01-05T04:37:25.354Z,99398.28
2023-01-05T04:40:06.388Z,99397.92
2023-01-05T04:42:50.026Z,99396.61
2023-01-05T04:45:28.128Z,99396.87
2023-01-05T04:48:12.500Z,99394.86
2023-01-05T04:50:56.988Z,99394.27
2023-01-05T04:53:36.353Z,99395.41
2023-01-05T04:56:17.608Z,99396.34
2023-01-05T04:58:50.692Z,99391.80
2023-01-05T05:01:34.670Z,99393.18
2023-01-05T05:04:14.986Z,99393.54
2023-01-05T05:07:13.316Z,99389.77
2023-01-05T05:09:56.102Z,99391.30
2023-01-05T05:12:31.343Z,99391.31
2023-01-05T05:15:07.614Z,99393.41
2023-01-05T05:17:43.664Z,99389.27
2023-01-05T05:20:16.443Z,99388.52
2023-01-05T05:23:00.528Z,99390.34
2023-01-05T05:25:36.788Z,99388.11
2023-01-05T05:28:09.256Z,99384.89
2023-01-05T05:30:43.268Z,99385.48
2023-01-05T05:33:23.033Z,99387.30
2023-01-05T05:36:18.659Z,99387.23
2023-01-05T05:39:02.730Z,99391.40
2023-01-05T05:41:43.341Z,99395.02
2023-01-05T05:44:42.337Z,99393.55
2023-01-05T05:47:35.877Z,99394.98
2023-01-05T05:50:14.761Z,99399.98
2023-01-05T05:52:48.797Z,99396.19
2023-01-05T05:55:27.459Z,99396.27
2023-01-05T05:58:04.192Z,99393.22
2023-01-05T06:00:53.508Z,99393.00
2023-01-05T06:03:52.785Z,99398.02
2023-01-05T06:06:23.089Z,99390.37
2023-01-05T06:08:54.586Z,99392.23
2023-01-05T06:11:36.225Z,99400.89
2023-01-05T06:14:10.968Z,99398.46
2023-01-05T06:16:42.705Z,99396.20
2023-01-05T06:19:19.686Z,99398.61
2023-01-05T06:21:50.961Z,99404.12
2023-01-05T06:24:22.276Z,99399.73
2023-01-05T06:27:10.653Z,99395.01
2023-01-05T06:29:46.819Z,99394.27
2023-01-05T06:32:17.205Z,99397.55
2023-01-05T06:34:51.361Z,99396.62
2023-01-05T06:37:24.456Z,99396.89
2023-01-05T06:40:02.890Z,99398.73
2023-01-05T06:42:33.524Z,99398.47
2023-01-05T06:45:08.851Z,99407.80
2023-01-05T06:47:54.748Z,99413.73
2023-01-05T06:50:27.583Z,99402.04
2023-01-05T06:52:59.908Z,99403.10
2023-01-05T06:55:29.991Z,99403.02
2023-01-05T06:58:06.241Z,99405.33
2023-01-05T07:00:51.364Z,99402.31
2023-01-05T07:03:24.004Z,99410.55
2023-01-05T07:05:56.314Z,99413.05
2023-01-05T07:08:36.852Z,99419.50
2023-01-05T07:11:07.046Z,99427.14
2023-01-05T07:13:43.742Z,99432.88
2023-01-05T07:16:17.237Z,99437.45
2023-01-05T07:18:47.469Z,99444.06
2023-01-05T07:21:20.384Z,99445.41
2023-01-05T07:23:50.567Z,99449.61
2023-01-05T07:26:20.206Z,99453.30
2023-01-05T07:28:52.134Z,99457.31
2023-01-05T07:31:24.206Z,99463.43
2023-01-05T07:33:57.576Z,99460.99
2023-01-05T07:36:27.924Z,99462.54
2023-01-05T07:39:00.283Z,99457.58
2023-01-05T07:41:30.431Z,99453.64
2023-01-05T07:44:03.791Z,99455.36
2023-01-05T07:46:37.157Z,99454.73
2023-01-05T07:49:16.277Z,99456.13
2023-01-05T07:51:46.316Z,99457.75
2023-01-05T07:54:23.270Z,99456.33
2023-01-05T07:56:56.029Z,99454.03
2023-01-05T07:59:30.611Z,99451.91
2023-01-05T08:02:01.595Z,99461.29
2023-01-05T08:04:31.693Z,99466.20
2023-01-05T08:07:02.494Z,99469.73
2023-01-05T08:10:23.479Z,99470.38
2023-01-05T08:13:11.600Z,99478.40
2023-01-05T08:15:50.769Z,99479.77
2023-01-05T08:18:22.181Z,99482.47
2023-01-05T08:21:04.505Z,99483.29
2023-01-05T08:23:33.772Z,99488.61
2023-01-05T08:26:10.788Z,99493.02
2023-01-05T08:28:45.389Z,99498.10
2023-01-05T08:31:30.062Z,99498.23
2023-01-05T08:34:05.437Z,99502.27
2023-01-05T08:36:48.533Z,99499.14
2023-01-05T08:39:23.068Z,99488.40
2023-01-05T08:42:02.798Z,99495.36
2023-01-05T08:44:39.550Z,99500.65
2023-01-05T08:47:18.182Z,99502.00
2023-01-05T08:49:52.989Z,99509.73
2023-01-05T08:52:23.509Z,99511.73
2023-01-05T08:54:52.943Z,99513.45
2023-01-05T08:57:24.324Z,99519.88
2023-01-05T08:59:58.516Z,99528.75
2023-01-05T09:02:28.134Z,99529.61
2023-01-05T09:04:57.583Z,99529.58
2023-01-05T09:07:30.281Z,99536.99
2023-01-05T09:10:23.963Z,99541.00
2023-01-05T09:12:59.361Z,99537.64
2023-01-05T09:15:32.284Z,99535.46
2023-01-05T09:18:01.701Z,99531.19
2023-01-05T09:20:36.105Z,99531.15
2023-01-05T09:23:08.582Z,99534.45
2023-01-05T09:25:39.677Z,99532.80
2023-01-05T09:28:10.028Z,99538.67
2023-01-05T09:30:47.013Z,99536.77
2023-01-05T09:33:19.474Z,99537.89
2023-01-05T09:35:57.968Z,99531.98
2023-01-05T09:38:27.466Z,99535.09
2023-01-05T09:41:07.946Z,99535.88
2023-01-05T09:43:44.505Z,99536.92
2023-01-05T09:46:22.584Z,99538.18
2023-01-05T09:49:01.369Z,99536.11
2023-01-05T09:51:37.164Z,99535.45
2023-01-05T09:54:10.416Z,99536.50
2023-01-05T09:59:48.498Z,99543.83
2023-01-05T10:02:40.687Z,99545.80
2023-01-05T10:05:14.415Z,99544.54
2023-01-05T10:08:11.457Z,99543.70
2023-01-05T10:11:20.368Z,99547.16
2023-01-05T10:14:14.961Z,99538.52
2023-01-05T10:16:53.743Z,99534.50
2023-01-05T10:19:36.978Z,99536.58
2023-01-05T10:22:57.910Z,99536.29
2023-01-05T10:25:48.997Z,99536.79
2023-01-05T10:28:30.352Z,99534.20
2023-01-05T10:31:03.039Z,99535.96
2023-01-05T10:33:58.989Z,99530.64
2023-01-05T10:37:10.547Z,99530.82
2023-01-05T10:39:58.036Z,99529.27
2023-01-05T10:43:01.040Z,99529.05
2023-01-05T10:45:32.527Z,99531.13
2023-01-05T10:48:02.359Z,99532.30
2023-01-05T10:50:41.208Z,99537.45
2023-01-05T10:53:15.585Z,99535.86
2023-01-05T10:56:19.717Z,99533.66
2023-01-05T10:59:19.300Z,99532.18
2023-01-05T11:02:20.226Z,99530.52
2023-01-05T11:05:03.017Z,99530.48
2023-01-05T11:08:00.702Z,99534.03
2023-01-05T11:11:01.960Z,99535.95
2023-01-05T11:13:40.979Z,99542.32
2023-01-05T11:16:33.651Z,99547.36
2023-01-05T11:19:21.679Z,99552.48
2023-01-05T11:21:59.800Z,99553.23
2023-01-05T11:24:37.631Z,99549.48
2023-01-05T11:27:24.093Z,99547.64
2023-01-05T11:30:28.797Z,99548.48
2023-01-05T11:33:01.946Z,99555.27
2023-01-05T11:35:40.929Z,99559.14
2023-01-05T11:38:29.511Z,99560.68
2023-01-05T11:41:01.641Z,99561.53
2023-01-05T11:43:34.183Z,99568.46
2023-01-05T11:46:05.731Z,99562.53
2023-01-05T11:48:40.484Z,99561.73
2023-01-05T11:51:10.502Z,99563.98
2023-01-05T11:53:41.212Z,99560.72
2023-01-05T11:56:25.096Z,99561.98
2023-01-05T11:58:58.819Z,99561.83
2023-01-05T12:02:00.163Z,99566.16
2023-01-05T12:04:38.161Z,99562.38
2023-01-05T12:07:27.672Z,99569.36
2023-01-05T12:10:39.505Z,99566.05
2023-01-05T12:13:53.593Z,99567.39
2023-01-05T12:16:54.818Z,99571.66
2023-01-05T12:19:56.945Z,99576.15
2023-01-05T12:23:02.835Z,99569.77
2023-01-05T12:25:57.440Z,99571.10
2023-01-05T12:30:40.292Z,99577.56
2023-01-05T12:36:04.151Z,99576.37
2023-01-05T12:38:46.579Z,99579.50
2023-01-05T12:42:17.742Z,99584.21
2023-01-05T12:45:28.068Z,99584.13
2023-01-05T12:48:19.107Z,99587.20
2023-01-05T12:51:27.947Z,99588.28
2023-01-05T12:54:00.505Z,99588.70
2023-01-05T12:56:48.298Z,99590.09
2023-01-05T12:59:53.008Z,99594.48
2023-01-05T13:02:54.159Z,99595.81
2023-01-05T13:05:50.583Z,99601.32
2023-01-05T13:08:37.840Z,99602.15
2023-01-05T13:11:36.531Z,99606.22
2023-01-05T13:14:17.998Z,99602.48
2023-01-05T13:17:24.687Z,99598.29
2023-01-05T13:20:30.456Z,99607.44
2023-01-05T13:23:17.760Z,99611.27
2023-01-05T13:26:04.861Z,99609.05
2023-01-05T13:28:35.200Z,99616.61
2023-01-05T13:32:05.232Z,99620.21
2023-01-05T13:35:06.271Z,99614.96
2023-01-05T13:37:53.616Z,99616.22
2023-01-05T13:41:08.684Z,99615.58
2023-01-05T13:43:43.996Z,99620.03
2023-01-05T13:46:37.288Z,99627.63
2023-01-05T13:49:37.461Z,99622.27
2023-01-05T13:53:05.217Z,99623.61
2023-01-05T13:55:44.313Z,99629.21
2023-01-05T13:59:04.527Z,99628.37
2023-01-05T14:01:43.393Z,99634.34
2023-01-05T14:04:32.753Z,99638.50
2023-01-05T14:07:17.241Z,99644.33
2023-01-05T14:09:56.720Z,99644.04
2023-01-05T14:12:43.730Z,99656.45
2023-01-05T14:15:31.823Z,99666.45
2023-01-05T14:18:10.886Z,99672.83
2023-01-05T14:20:54.437Z,99670.81
2023-01-05T14:23:25.947Z,99677.88
2023-01-05T14:26:01.225Z,99682.32
2023-01-05T14:28:33.345Z,99684.94
2023-01-05T14:31:18.335Z,99695.98
2023-01-05T14:33:56.460Z,99699.23
2023-01-05T14:36:35.160Z,99703.13
2023-01-05T14:39:26.167Z,99703.29
2023-01-05T14:42:13.626Z,99707.41
2023-01-05T14:45:09.722Z,99716.05
2023-01-05T14:47:49.920Z,99718.92
2023-01-05T14:50:47.309Z,99725.36
2023-01-05T14:53:43.549Z,99730.70
2023-01-05T14:56:26.598Z,99732.73
2023-01-05T14:58:57.014Z,99740.41
2023-01-05T15:01:58.282Z,99743.91
2023-01-05T15:04:39.376Z,99739.39
2023-01-05T15:07:46.221Z,99744.05
2023-01-05T15:10:57.400Z,99745.48
2023-01-05T15:14:25.363Z,99748.06
2023-01-05T15:17:37.361Z,99761.48
2023-01-05T15:20:25.060Z,99777.71
2023-01-05T15:23:40.040Z,99780.61
2023-01-05T15:26:30.354Z,99792.35
2023-01-05T15:29:36.693Z,99804.16
2023-01-05T15:32:32.830Z,99812.45
2023-01-05T15:35:26.725Z,99822.30
2023-01-05T15:37:56.166Z,99827.61
2023-01-05T15:40:25.576Z,99841.14
2023-01-05T15:43:03.183Z,99849.52
2023-01-05T15:45:39.752Z,99855.92
2023-01-05T15:48:17.202Z,99863.73
2023-01-05T15:50:51.653Z,99874.33
2023-01-05T15:53:33.202Z,99890.23
2023-01-05T15:56:04.956Z,99899.23
2023-01-05T15:58:46.326Z,99907.73
2023-01-05T16:01:16.906Z,99911.16
2023-01-05T16:03:49.011Z,99914.45
2023-01-05T16:06:26.692Z,99931.86
2023-01-05T16:09:07.875Z,99937.98
2023-01-05T16:11:48.801Z,99946.02
2023-01-05T16:14:32.898Z,99956.00
2023-01-05T16:17:20.372Z,99965.45
2023-01-05T16:20:12.471Z,99974.33
2023-01-05T16:23:08.220Z,99982.13
2023-01-05T16:25:52.561Z,99986.82
2023-01-05T16:28:24.601Z,99998.16
2023-01-05T16:30:54.989Z,100004.83
2023-01-05T16:33:38.979Z,100011.02
2023-01-05T16:36:23.724Z,100018.76
2023-01-05T16:38:53.039Z,100023.84
2023-01-05T16:41:30.863Z,100027.79
2023-01-05T16:44:04.046Z,100029.92
2023-01-05T16:46:39.245Z,100035.35
2023-01-05T16:49:43.503Z,100041.52
2023-01-05T16:52:24.959Z,100050.63
2023-01-05T16:55:36.987Z,100057.25
2023-01-05T16:58:32.093Z,100066.41
2023-01-05T17:01:23.686Z,100067.45
2023-01-05T17:03:54.494Z,100073.05
2023-01-05T17:06:31.344Z,100075.67
2023-01-05T17:09:18.091Z,100084.67
2023-01-05T17:11:54.218Z,100091.94
2023-01-05T17:14:29.675Z,100099.52
2023-01-05T17:17:02.289Z,100103.08
2023-01-05T17:19:49.840Z,100105.58
2023-01-05T17:22:23.004Z,100111.95
2023-01-05T17:24:54.848Z,100116.15
2023-01-05T17:27:27.611Z,100123.80
2023-01-05T17:29:57.383Z,100132.67
2023-01-05T17:32:29.433Z,100142.39
2023-01-05T17:34:59.208Z,100148.86
2023-01-05T17:37:28.836Z,100157.66
2023-01-05T17:39:59.783Z,100163.81
2023-01-05T17:42:44.840Z,100166.80
2023-01-05T17:45:20.989Z,100173.18
2023-01-05T17:47:55.277Z,100176.30
2023-01-05T17:53:07.417Z,100185.83
2023-01-05T17:55:37.486Z,100190.36
2023-01-05T17:58:07.495Z,100192.67
2023-01-05T18:03:27.090Z,100207.10
2023-01-05T18:06:01.161Z,100210.36
2023-01-05T18:08:34.138Z,100216.16
2023-01-05T18:11:08.103Z,100219.11
2023-01-05T18:13:40.901Z,100224.52
2023-01-05T18:16:15.596Z,100230.65
2023-01-05T18:18:47.723Z,100230.10
2023-01-05T18:21:18.009Z,100232.17
2023-01-05T18:23:49.831Z,100239.16
2023-01-05T18:26:21.551Z,100239.92
2023-01-05T18:28:53.305Z,100243.46
2023-01-05T18:31:27.237Z,100248.21
2023-01-05T18:34:00.696Z,100254.84
2023-01-05T18:36:31.142Z,100257.77
2023-01-05T18:39:30.962Z,100264.73
2023-01-05T18:42:07.877Z,100267.48
2023-01-05T18:44:40.301Z,100273.60
2023-01-05T18:47:19.318Z,100275.88
2023-01-05T18:50:22.777Z,100283.39
2023-01-05T18:53:12.168Z,100289.20
2023-01-05T18:55:55.750Z,100297.58
2023-01-05T18:58:30.221Z,100297.64
2023-01-05T19:01:02.232Z,100301.61
2023-01-05T19:03:38.131Z,100304.70
2023-01-05T19:06:47.915Z,100310.29
2023-01-05T19:13:42.954Z,100321.91
2023-01-05T19:17:12.995Z,100329.46
2023-01-05T19:20:06.481Z,100337.04
2023-01-05T19:22:48.118Z,100342.54
2023-01-05T19:25:31.876Z,100348.73
2023-01-05T19:29:23.313Z,100347.81
2023-01-05T19:31:43.980Z,100350.56
2023-01-05T19:34:54.252Z,100351.17
2023-01-05T19:37:46.561Z,100357.23
2023-01-05T19:40:47.472Z,100364.19
2023-01-05T19:43:41.047Z,100369.91
2023-01-05T19:53:06.976Z,100373.66
2023-01-05T19:56:02.847Z,100374.52
2023-01-05T19:58:38.221Z,100381.60
2023-01-05T20:01:21.348Z,100387.77
2023-01-05T20:04:04.345Z,100393.70
2023-01-05T20:06:42.805Z,100402.52
2023-01-05T20:12:15.857Z,100406.96
2023-01-05T20:15:07.642Z,100413.02
2023-01-05T20:18:22.345Z,100420.67
2023-01-05T20:20:56.224Z,100423.45
2023-01-05T20:23:53.287Z,100427.58
2023-01-05T20:26:46.735Z,100431.60
2023-01-05T20:29:41.196Z,100432.83
2023-01-05T20:32:31.610Z,100436.14
2023-01-05T20:35:07.298Z,100448.90
2023-01-05T20:38:05.691Z,100453.19
2023-01-05T20:40:41.071Z,100460.94
2023-01-05T20:43:17.239Z,100463.17
2023-01-05T20:45:56.615Z,100466.79
2023-01-05T20:48:35.600Z,100475.34
2023-01-05T20:51:11.813Z,100476.88
2023-01-05T20:53:48.967Z,100482.02
2023-01-05T20:56:45.580Z,100491.67
2023-01-05T21:00:04.489Z,100495.83
2023-01-05T21:02:43.016Z,100503.78
2023-01-05T21:05:19.130Z,100511.67
2023-01-05T21:07:58.394Z,100514.23
2023-01-05T21:10:38.950Z,100513.69
2023-01-05T21:13:30.762Z,100520.38
2023-01-05T21:16:07.679Z,100523.99
2023-01-05T21:18:40.028Z,100525.21
2023-01-05T21:21:19.048Z,100530.38
2023-01-05T21:23:53.767Z,100537.77
2023-01-05T21:26:28.362Z,100540.17
2023-01-05T21:29:00.501Z,100543.49
2023-01-05T21:31:38.138Z,100551.08
2023-01-05T21:34:15.334Z,100560.92
2023-01-05T21:36:53.615Z,100567.11
2023-01-05T21:39:42.131Z,100567.45
2023-01-05T21:42:37.248Z,100570.75
2023-01-05T21:45:51.505Z,100576.36
2023-01-05T21:49:01.294Z,100583.01
2023-01-05T21:51:53.114Z,100587.84
2023-01-05T21:54:47.397Z,100595.06
2023-01-05T21:57:37.182Z,100600.90
2023-01-05T22:00:23.399Z,100608.15
2023-01-05T22:02:56.458Z,100618.30
2023-01-05T22:05:29.343Z,100621.13
2023-01-05T22:07:58.949Z,100628.31
2023-01-05T22:10:31.299Z,100636.91
2023-01-05T22:13:00.704Z,100639.74
2023-01-05T22:16:01.257Z,100640.98
2023-01-05T22:18:36.113Z,100645.06
2023-01-05T22:21:18.537Z,100648.23
2023-01-05T22:24:21.251Z,100649.20
2023-01-05T22:28:02.840Z,100657.54
2023-01-05T22:31:06.264Z,100659.52
2023-01-05T22:33:45.568Z,100659.55
2023-01-05T22:36:20.623Z,100666.30
2023-01-05T22:38:58.081Z,100677.19
2023-01-05T22:41:33.912Z,100677.55
2023-01-05T22:44:06.688Z,100678.63
2023-01-05T22:46:36.806Z,100682.23
2023-01-05T22:49:18.537Z,100684.31
2023-01-05T22:51:52.274Z,100685.64
2023-01-05T22:54:30.616Z,100689.77
2023-01-05T22:57:00.916Z,100685.67
2023-01-05T22:59:30.485Z,100690.88
2023-01-05T23:02:03.055Z,100697.96
2023-01-05T23:04:36.027Z,100702.30
2023-01-05T23:07:05.472Z,100700.59
2023-01-05T23:09:38.354Z,100705.07
2023-01-05T23:12:12.045Z,100710.39
2023-01-05T23:14:46.892Z,100716.59
2023-01-05T23:17:17.820Z,100721.45
2023-01-05T23:19:49.835Z,100724.08
2023-01-05T23:22:21.810Z,100723.05
2023-01-05T23:24:54.480Z,100726.16
2023-01-05T23:27:25.783Z,100727.56
2023-01-05T23:30:02.288Z,100729.66
2023-01-05T23:32:34.008Z,100736.92
2023-01-05T23:35:08.168Z,100736.59
2023-01-05T23:37:43.187Z,100739.08
2023-01-05T23:40:16.217Z,100737.17
2023-01-05T23:42:49.384Z,100740.97
2023-01-05T23:45:19.817Z,100744.05
2023-01-05T23:47:51.249Z,100748.19
2023-01-05T23:50:22.854Z,100747.38
2023-01-05T23:52:53.078Z,100750.33
2023-01-05T23:55:25.719Z,100750.30
2023-01-05T23:57:58.387Z,100758.55
